North Boston, New York
Current Conditions -  °F | °C
As of 12:54 AM on Thursday 23 Oct 2014 (Local Time) from KBUF Reporting Station
Scattered Clouds Scattered Clouds  
Wind Chill: 40°   Ceiling: Unl
Heat Index: 44°   Visibility: 10mi
Dew Point: 41°   Wind: 7mph
Humidity: 89%   Direction: 340°NNW
Pressure: 30.17"   Gusts: NA
Location:  42.67°N, 78.78°W
Report Text: KBUF 230454Z 34006KT 10SM FEW030 SCT055 07/05 A3017 RMK AO2 SLP219 T00670050 400830067
Loading
Personal Weather Stations






























Interactive Weather Map
Tropical Storm Tracking
New forecast layout! Learn more

10-Day Weather Forecast

Advertisements
Track Severe Weather on mobile